sensor_id;sensor_type;location;lat;lon;timestamp;temperature;humidity
45207;DHT22;30950;53.086;21.576;2023-05-07T00:00:32;8.80;60.10
45207;DHT22;30950;53.086;21.576;2023-05-07T00:03:18;8.80;60.10
45207;DHT22;30950;53.086;21.576;2023-05-07T00:05:46;8.70;60.20
45207;DHT22;30950;53.086;21.576;2023-05-07T00:08:13;8.70;60.30
45207;DHT22;30950;53.086;21.576;2023-05-07T00:10:41;8.80;60.40
45207;DHT22;30950;53.086;21.576;2023-05-07T00:13:08;8.70;60.60
45207;DHT22;30950;53.086;21.576;2023-05-07T00:15:35;8.70;60.70
45207;DHT22;30950;53.086;21.576;2023-05-07T00:18:02;8.60;60.80
45207;DHT22;30950;53.086;21.576;2023-05-07T00:20:30;8.60;61.00
45207;DHT22;30950;53.086;21.576;2023-05-07T00:22:57;8.60;60.90
45207;DHT22;30950;53.086;21.576;2023-05-07T00:25:24;8.60;61.10
45207;DHT22;30950;53.086;21.576;2023-05-07T00:27:51;8.50;61.10
45207;DHT22;30950;53.086;21.576;2023-05-07T00:30:19;8.50;61.20
45207;DHT22;30950;53.086;21.576;2023-05-07T00:32:46;8.50;61.30
45207;DHT22;30950;53.086;21.576;2023-05-07T00:35:15;8.40;61.40
45207;DHT22;30950;53.086;21.576;2023-05-07T00:37:43;8.40;61.30
45207;DHT22;30950;53.086;21.576;2023-05-07T00:40:10;8.50;61.40
45207;DHT22;30950;53.086;21.576;2023-05-07T00:42:38;8.40;61.40
45207;DHT22;30950;53.086;21.576;2023-05-07T00:45:05;8.40;61.60
45207;DHT22;30950;53.086;21.576;2023-05-07T00:47:35;8.30;61.70
45207;DHT22;30950;53.086;21.576;2023-05-07T00:50:02;8.30;61.70
45207;DHT22;30950;53.086;21.576;2023-05-07T00:52:30;8.20;61.70
45207;DHT22;30950;53.086;21.576;2023-05-07T00:54:57;8.20;61.80
45207;DHT22;30950;53.086;21.576;2023-05-07T00:57:27;8.10;61.90
45207;DHT22;30950;53.086;21.576;2023-05-07T00:59:54;8.00;62.60
45207;DHT22;30950;53.086;21.576;2023-05-07T01:02:22;8.00;62.10
45207;DHT22;30950;53.086;21.576;2023-05-07T01:04:50;8.00;62.40
45207;DHT22;30950;53.086;21.576;2023-05-07T01:07:18;7.90;62.30
45207;DHT22;30950;53.086;21.576;2023-05-07T01:09:45;7.90;62.40
45207;DHT22;30950;53.086;21.576;2023-05-07T01:12:13;7.80;62.50
45207;DHT22;30950;53.086;21.576;2023-05-07T01:14:41;7.80;62.70
45207;DHT22;30950;53.086;21.576;2023-05-07T01:17:08;7.70;62.90
45207;DHT22;30950;53.086;21.576;2023-05-07T01:19:35;7.70;63.00
45207;DHT22;30950;53.086;21.576;2023-05-07T01:22:08;7.70;63.20
45207;DHT22;30950;53.086;21.576;2023-05-07T01:24:45;7.60;63.40
45207;DHT22;30950;53.086;21.576;2023-05-07T01:27:14;7.60;63.50
45207;DHT22;30950;53.086;21.576;2023-05-07T01:29:42;7.50;63.80
45207;DHT22;30950;53.086;21.576;2023-05-07T01:32:10;7.50;64.10
45207;DHT22;30950;53.086;21.576;2023-05-07T01:34:39;7.40;64.10
45207;DHT22;30950;53.086;21.576;2023-05-07T01:37:06;7.40;64.30
45207;DHT22;30950;53.086;21.576;2023-05-07T01:39:37;7.30;64.40
45207;DHT22;30950;53.086;21.576;2023-05-07T01:42:06;7.30;64.50
45207;DHT22;30950;53.086;21.576;2023-05-07T01:44:33;7.20;64.70
45207;DHT22;30950;53.086;21.576;2023-05-07T01:47:02;7.20;64.90
45207;DHT22;30950;53.086;21.576;2023-05-07T01:49:32;7.20;65.10
45207;DHT22;30950;53.086;21.576;2023-05-07T01:52:00;7.10;65.10
45207;DHT22;30950;53.086;21.576;2023-05-07T01:54:27;7.10;65.60
45207;DHT22;30950;53.086;21.576;2023-05-07T01:56:58;7.00;65.70
45207;DHT22;30950;53.086;21.576;2023-05-07T01:59:26;7.00;65.80
45207;DHT22;30950;53.086;21.576;2023-05-07T02:01:53;6.90;65.90
45207;DHT22;30950;53.086;21.576;2023-05-07T02:04:21;6.90;66.10
45207;DHT22;30950;53.086;21.576;2023-05-07T02:06:48;6.80;66.30
45207;DHT22;30950;53.086;21.576;2023-05-07T02:09:16;6.80;66.40
45207;DHT22;30950;53.086;21.576;2023-05-07T02:11:47;6.80;66.90
45207;DHT22;30950;53.086;21.576;2023-05-07T02:14:14;6.70;67.00
45207;DHT22;30950;53.086;21.576;2023-05-07T02:16:42;6.60;67.50
45207;DHT22;30950;53.086;21.576;2023-05-07T02:19:12;6.60;67.70
45207;DHT22;30950;53.086;21.576;2023-05-07T02:21:39;6.50;68.10
45207;DHT22;30950;53.086;21.576;2023-05-07T02:24:06;6.50;68.30
45207;DHT22;30950;53.086;21.576;2023-05-07T02:26:34;6.50;68.40
45207;DHT22;30950;53.086;21.576;2023-05-07T02:29:01;6.50;68.80
45207;DHT22;30950;53.086;21.576;2023-05-07T02:31:28;6.40;68.90
45207;DHT22;30950;53.086;21.576;2023-05-07T02:33:55;6.40;69.40
45207;DHT22;30950;53.086;21.576;2023-05-07T02:36:22;6.30;69.50
45207;DHT22;30950;53.086;21.576;2023-05-07T02:38:56;6.30;69.60
45207;DHT22;30950;53.086;21.576;2023-05-07T02:41:23;6.30;69.80
45207;DHT22;30950;53.086;21.576;2023-05-07T02:43:50;6.30;70.10
45207;DHT22;30950;53.086;21.576;2023-05-07T02:46:18;6.30;70.70
45207;DHT22;30950;53.086;21.576;2023-05-07T02:48:50;6.20;71.10
45207;DHT22;30950;53.086;21.576;2023-05-07T02:51:21;6.10;71.40
45207;DHT22;30950;53.086;21.576;2023-05-07T02:53:52;6.10;71.90
45207;DHT22;30950;53.086;21.576;2023-05-07T02:56:21;6.00;72.20
45207;DHT22;30950;53.086;21.576;2023-05-07T02:58:48;6.00;72.80
45207;DHT22;30950;53.086;21.576;2023-05-07T03:01:17;6.00;73.30
45207;DHT22;30950;53.086;21.576;2023-05-07T03:04:05;5.90;74.50
45207;DHT22;30950;53.086;21.576;2023-05-07T03:06:32;5.90;74.40
45207;DHT22;30950;53.086;21.576;2023-05-07T03:09:00;5.90;74.60
45207;DHT22;30950;53.086;21.576;2023-05-07T03:11:27;5.80;74.90
45207;DHT22;30950;53.086;21.576;2023-05-07T03:13:54;5.80;75.20
45207;DHT22;30950;53.086;21.576;2023-05-07T03:16:22;5.80;75.40
45207;DHT22;30950;53.086;21.576;2023-05-07T03:18:49;5.70;75.70
45207;DHT22;30950;53.086;21.576;2023-05-07T03:21:17;5.70;76.20
45207;DHT22;30950;53.086;21.576;2023-05-07T03:23:44;5.70;76.70
45207;DHT22;30950;53.086;21.576;2023-05-07T03:26:11;5.70;77.00
45207;DHT22;30950;53.086;21.576;2023-05-07T03:28:38;5.60;77.30
45207;DHT22;30950;53.086;21.576;2023-05-07T03:31:10;5.60;78.00
45207;DHT22;30950;53.086;21.576;2023-05-07T03:33:55;5.60;78.90
45207;DHT22;30950;53.086;21.576;2023-05-07T03:36:24;5.60;79.90
45207;DHT22;30950;53.086;21.576;2023-05-07T03:38:54;5.50;80.00
45207;DHT22;30950;53.086;21.576;2023-05-07T03:41:25;5.50;80.40
45207;DHT22;30950;53.086;21.576;2023-05-07T03:43:53;5.50;81.80
45207;DHT22;30950;53.086;21.576;2023-05-07T03:46:21;5.70;82.30
45207;DHT22;30950;53.086;21.576;2023-05-07T03:48:48;5.50;82.60
45207;DHT22;30950;53.086;21.576;2023-05-07T03:51:16;5.50;82.80
45207;DHT22;30950;53.086;21.576;2023-05-07T03:53:43;5.50;83.40
45207;DHT22;30950;53.086;21.576;2023-05-07T03:56:11;5.50;83.70
45207;DHT22;30950;53.086;21.576;2023-05-07T03:58:40;5.50;84.10
45207;DHT22;30950;53.086;21.576;2023-05-07T04:01:10;5.50;84.70
45207;DHT22;30950;53.086;21.576;2023-05-07T04:03:37;5.50;85.00
45207;DHT22;30950;53.086;21.576;2023-05-07T04:06:04;5.50;85.60
45207;DHT22;30950;53.086;21.576;2023-05-07T04:08:34;5.50;86.00
45207;DHT22;30950;53.086;21.576;2023-05-07T04:11:02;5.50;86.60
45207;DHT22;30950;53.086;21.576;2023-05-07T04:13:32;5.60;87.50
45207;DHT22;30950;53.086;21.576;2023-05-07T04:16:03;5.60;88.40
45207;DHT22;30950;53.086;21.576;2023-05-07T04:18:33;5.60;89.00
45207;DHT22;30950;53.086;21.576;2023-05-07T04:21:01;5.60;89.20
45207;DHT22;30950;53.086;21.576;2023-05-07T04:23:28;5.70;90.00
45207;DHT22;30950;53.086;21.576;2023-05-07T04:25:59;5.70;90.00
45207;DHT22;30950;53.086;21.576;2023-05-07T04:28:32;5.70;90.40
45207;DHT22;30950;53.086;21.576;2023-05-07T04:31:00;5.80;90.60
45207;DHT22;30950;53.086;21.576;2023-05-07T04:33:28;5.80;90.80
45207;DHT22;30950;53.086;21.576;2023-05-07T04:35:58;5.90;91.20
45207;DHT22;30950;53.086;21.576;2023-05-07T04:38:31;5.90;91.20
45207;DHT22;30950;53.086;21.576;2023-05-07T04:41:04;6.00;91.10
45207;DHT22;30950;53.086;21.576;2023-05-07T04:43:36;6.00;91.10
45207;DHT22;30950;53.086;21.576;2023-05-07T04:46:03;6.10;91.40
45207;DHT22;30950;53.086;21.576;2023-05-07T04:48:31;6.20;91.30
45207;DHT22;30950;53.086;21.576;2023-05-07T04:51:00;6.30;91.20
45207;DHT22;30950;53.086;21.576;2023-05-07T04:53:27;6.40;91.10
45207;DHT22;30950;53.086;21.576;2023-05-07T04:55:57;6.50;90.90
45207;DHT22;30950;53.086;21.576;2023-05-07T04:58:27;6.50;90.90
45207;DHT22;30950;53.086;21.576;2023-05-07T05:00:59;7.40;90.80
45207;DHT22;30950;53.086;21.576;2023-05-07T05:03:27;7.10;90.50
45207;DHT22;30950;53.086;21.576;2023-05-07T05:05:55;6.80;90.50
45207;DHT22;30950;53.086;21.576;2023-05-07T05:08:27;6.90;89.90
45207;DHT22;30950;53.086;21.576;2023-05-07T05:10:54;7.60;90.10
45207;DHT22;30950;53.086;21.576;2023-05-07T05:13:22;7.10;89.20
45207;DHT22;30950;53.086;21.576;2023-05-07T05:15:49;7.20;88.00
45207;DHT22;30950;53.086;21.576;2023-05-07T05:18:17;7.30;87.80
45207;DHT22;30950;53.086;21.576;2023-05-07T05:20:44;7.40;87.60
45207;DHT22;30950;53.086;21.576;2023-05-07T05:23:12;7.40;87.30
45207;DHT22;30950;53.086;21.576;2023-05-07T05:25:39;7.50;86.10
45207;DHT22;30950;53.086;21.576;2023-05-07T05:28:09;7.60;85.20
45207;DHT22;30950;53.086;21.576;2023-05-07T05:30:37;7.70;84.90
45207;DHT22;30950;53.086;21.576;2023-05-07T05:33:04;7.80;84.70
45207;DHT22;30950;53.086;21.576;2023-05-07T05:35:31;8.80;85.20
45207;DHT22;30950;53.086;21.576;2023-05-07T05:38:02;7.90;84.10
45207;DHT22;30950;53.086;21.576;2023-05-07T05:40:30;8.00;83.30
45207;DHT22;30950;53.086;21.576;2023-05-07T05:42:57;8.10;83.40
45207;DHT22;30950;53.086;21.576;2023-05-07T05:45:25;8.10;83.70
45207;DHT22;30950;53.086;21.576;2023-05-07T05:47:52;8.20;83.30
45207;DHT22;30950;53.086;21.576;2023-05-07T05:50:20;8.20;83.20
45207;DHT22;30950;53.086;21.576;2023-05-07T05:52:47;8.40;83.00
45207;DHT22;30950;53.086;21.576;2023-05-07T05:55:18;9.40;83.30
45207;DHT22;30950;53.086;21.576;2023-05-07T05:57:45;8.50;81.80
45207;DHT22;30950;53.086;21.576;2023-05-07T06:00:13;8.60;81.20
45207;DHT22;30950;53.086;21.576;2023-05-07T06:02:46;8.70;81.30
45207;DHT22;30950;53.086;21.576;2023-05-07T06:05:22;8.80;80.30
45207;DHT22;30950;53.086;21.576;2023-05-07T06:07:52;8.80;80.20
45207;DHT22;30950;53.086;21.576;2023-05-07T06:10:19;8.90;80.10
45207;DHT22;30950;53.086;21.576;2023-05-07T06:12:47;8.90;79.80
45207;DHT22;30950;53.086;21.576;2023-05-07T06:15:15;9.00;79.10
45207;DHT22;30950;53.086;21.576;2023-05-07T06:17:42;9.00;79.40
45207;DHT22;30950;53.086;21.576;2023-05-07T06:20:10;9.10;78.70
45207;DHT22;30950;53.086;21.576;2023-05-07T06:22:39;9.20;78.80
45207;DHT22;30950;53.086;21.576;2023-05-07T06:25:08;9.40;79.00
45207;DHT22;30950;53.086;21.576;2023-05-07T06:27:36;9.30;79.10
45207;DHT22;30950;53.086;21.576;2023-05-07T06:30:04;9.40;78.70
45207;DHT22;30950;53.086;21.576;2023-05-07T06:32:32;9.40;78.60
45207;DHT22;30950;53.086;21.576;2023-05-07T06:34:59;9.40;78.80
45207;DHT22;30950;53.086;21.576;2023-05-07T06:37:27;9.60;78.70
45207;DHT22;30950;53.086;21.576;2023-05-07T06:40:01;9.50;78.80
45207;DHT22;30950;53.086;21.576;2023-05-07T06:42:30;9.60;78.00
45207;DHT22;30950;53.086;21.576;2023-05-07T06:45:05;9.70;78.00
45207;DHT22;30950;53.086;21.576;2023-05-07T06:47:33;9.70;77.90
45207;DHT22;30950;53.086;21.576;2023-05-07T06:50:01;9.80;77.30
45207;DHT22;30950;53.086;21.576;2023-05-07T06:52:31;9.90;76.00
45207;DHT22;30950;53.086;21.576;2023-05-07T06:54:59;10.00;76.40
45207;DHT22;30950;53.086;21.576;2023-05-07T06:57:26;10.00;76.00
45207;DHT22;30950;53.086;21.576;2023-05-07T06:59:54;10.10;75.50
45207;DHT22;30950;53.086;21.576;2023-05-07T07:02:21;10.10;74.00
45207;DHT22;30950;53.086;21.576;2023-05-07T07:04:49;10.10;73.50
45207;DHT22;30950;53.086;21.576;2023-05-07T07:07:17;10.20;73.20
45207;DHT22;30950;53.086;21.576;2023-05-07T07:09:46;10.20;73.20
45207;DHT22;30950;53.086;21.576;2023-05-07T07:12:16;10.30;73.20
45207;DHT22;30950;53.086;21.576;2023-05-07T07:14:43;10.40;72.90
45207;DHT22;30950;53.086;21.576;2023-05-07T07:17:12;10.50;72.70
45207;DHT22;30950;53.086;21.576;2023-05-07T07:19:40;10.50;72.30
45207;DHT22;30950;53.086;21.576;2023-05-07T07:22:07;10.70;72.30
45207;DHT22;30950;53.086;21.576;2023-05-07T07:24:35;10.60;70.50
45207;DHT22;30950;53.086;21.576;2023-05-07T07:27:04;10.70;70.80
45207;DHT22;30950;53.086;21.576;2023-05-07T07:29:34;10.80;70.50
45207;DHT22;30950;53.086;21.576;2023-05-07T07:32:01;10.80;70.00
45207;DHT22;30950;53.086;21.576;2023-05-07T07:34:29;10.90;69.70
45207;DHT22;30950;53.086;21.576;2023-05-07T07:36:57;10.90;69.30
45207;DHT22;30950;53.086;21.576;2023-05-07T07:39:25;11.00;69.90
45207;DHT22;30950;53.086;21.576;2023-05-07T07:41:55;11.10;69.70
45207;DHT22;30950;53.086;21.576;2023-05-07T07:44:23;11.10;69.50
45207;DHT22;30950;53.086;21.576;2023-05-07T07:46:55;11.20;68.40
45207;DHT22;30950;53.086;21.576;2023-05-07T07:49:25;11.30;68.00
45207;DHT22;30950;53.086;21.576;2023-05-07T07:51:52;11.40;67.30
45207;DHT22;30950;53.086;21.576;2023-05-07T07:54:20;11.40;67.00
45207;DHT22;30950;53.086;21.576;2023-05-07T07:56:48;11.60;66.50
45207;DHT22;30950;53.086;21.576;2023-05-07T07:59:15;11.60;66.70
45207;DHT22;30950;53.086;21.576;2023-05-07T08:01:46;11.60;66.30
45207;DHT22;30950;53.086;21.576;2023-05-07T08:04:17;11.70;66.40
45207;DHT22;30950;53.086;21.576;2023-05-07T08:06:45;11.70;66.50
45207;DHT22;30950;53.086;21.576;2023-05-07T08:09:12;11.80;66.00
45207;DHT22;30950;53.086;21.576;2023-05-07T08:11:41;11.80;65.60
45207;DHT22;30950;53.086;21.576;2023-05-07T08:14:08;11.90;65.60
45207;DHT22;30950;53.086;21.576;2023-05-07T08:16:36;12.00;66.00
45207;DHT22;30950;53.086;21.576;2023-05-07T08:19:03;11.90;65.40
45207;DHT22;30950;53.086;21.576;2023-05-07T08:21:31;11.90;64.40
45207;DHT22;30950;53.086;21.576;2023-05-07T08:24:01;12.00;64.40
45207;DHT22;30950;53.086;21.576;2023-05-07T08:26:28;12.10;64.40
45207;DHT22;30950;53.086;21.576;2023-05-07T08:28:56;12.10;64.80
45207;DHT22;30950;53.086;21.576;2023-05-07T08:31:24;12.30;64.90
45207;DHT22;30950;53.086;21.576;2023-05-07T08:33:51;12.30;64.10
45207;DHT22;30950;53.086;21.576;2023-05-07T08:36:18;12.40;64.40
45207;DHT22;30950;53.086;21.576;2023-05-07T08:38:46;12.50;63.90
45207;DHT22;30950;53.086;21.576;2023-05-07T08:41:13;12.60;63.50
45207;DHT22;30950;53.086;21.576;2023-05-07T08:43:47;12.70;62.70
45207;DHT22;30950;53.086;21.576;2023-05-07T08:46:21;12.80;62.10
45207;DHT22;30950;53.086;21.576;2023-05-07T08:48:51;12.80;61.70
45207;DHT22;30950;53.086;21.576;2023-05-07T08:51:20;12.90;61.20
45207;DHT22;30950;53.086;21.576;2023-05-07T08:53:49;12.90;61.70
45207;DHT22;30950;53.086;21.576;2023-05-07T08:56:23;13.00;62.00
45207;DHT22;30950;53.086;21.576;2023-05-07T08:58:52;13.10;61.60
45207;DHT22;30950;53.086;21.576;2023-05-07T09:01:24;13.20;61.20
45207;DHT22;30950;53.086;21.576;2023-05-07T09:03:53;13.20;61.30
45207;DHT22;30950;53.086;21.576;2023-05-07T09:06:21;13.20;60.80
45207;DHT22;30950;53.086;21.576;2023-05-07T09:08:51;13.30;60.80
45207;DHT22;30950;53.086;21.576;2023-05-07T09:11:21;13.60;60.50
45207;DHT22;30950;53.086;21.576;2023-05-07T09:13:54;13.30;60.50
45207;DHT22;30950;53.086;21.576;2023-05-07T09:16:24;13.30;60.90
45207;DHT22;30950;53.086;21.576;2023-05-07T09:18:54;13.30;60.90
45207;DHT22;30950;53.086;21.576;2023-05-07T09:21:22;13.40;60.20
45207;DHT22;30950;53.086;21.576;2023-05-07T09:23:54;13.40;60.60
45207;DHT22;30950;53.086;21.576;2023-05-07T09:26:25;13.60;60.90
45207;DHT22;30950;53.086;21.576;2023-05-07T09:28:53;13.80;61.30
45207;DHT22;30950;53.086;21.576;2023-05-07T09:31:20;14.00;60.20
45207;DHT22;30950;53.086;21.576;2023-05-07T09:33:52;14.20;59.40
45207;DHT22;30950;53.086;21.576;2023-05-07T09:36:20;14.40;58.90
45207;DHT22;30950;53.086;21.576;2023-05-07T09:39:00;14.50;58.80
45207;DHT22;30950;53.086;21.576;2023-05-07T09:41:30;14.50;57.40
45207;DHT22;30950;53.086;21.576;2023-05-07T09:44:14;14.90;58.20
45207;DHT22;30950;53.086;21.576;2023-05-07T09:46:47;15.00;57.10
45207;DHT22;30950;53.086;21.576;2023-05-07T09:49:24;15.20;55.80
45207;DHT22;30950;53.086;21.576;2023-05-07T09:52:00;15.10;55.20
45207;DHT22;30950;53.086;21.576;2023-05-07T09:54:32;15.30;55.30
45207;DHT22;30950;53.086;21.576;2023-05-07T09:57:02;15.20;55.20
45207;DHT22;30950;53.086;21.576;2023-05-07T09:59:34;15.40;55.90
45207;DHT22;30950;53.086;21.576;2023-05-07T10:02:09;15.50;56.40
45207;DHT22;30950;53.086;21.576;2023-05-07T10:04:46;15.50;55.40
45207;DHT22;30950;53.086;21.576;2023-05-07T10:07:16;15.50;54.40
45207;DHT22;30950;53.086;21.576;2023-05-07T10:09:45;15.50;53.30
45207;DHT22;30950;53.086;21.576;2023-05-07T10:12:24;15.50;53.10
45207;DHT22;30950;53.086;21.576;2023-05-07T10:14:53;15.40;52.90
45207;DHT22;30950;53.086;21.576;2023-05-07T10:17:23;15.30;53.70
45207;DHT22;30950;53.086;21.576;2023-05-07T10:19:53;15.40;54.40
45207;DHT22;30950;53.086;21.576;2023-05-07T10:22:22;15.50;54.90
45207;DHT22;30950;53.086;21.576;2023-05-07T10:24:52;15.80;54.30
45207;DHT22;30950;53.086;21.576;2023-05-07T10:27:22;16.30;52.70
45207;DHT22;30950;53.086;21.576;2023-05-07T10:30:17;16.90;52.00
45207;DHT22;30950;53.086;21.576;2023-05-07T10:32:53;17.50;50.90
45207;DHT22;30950;53.086;21.576;2023-05-07T10:35:30;18.10;51.20
45207;DHT22;30950;53.086;21.576;2023-05-07T10:38:03;18.80;49.70
45207;DHT22;30950;53.086;21.576;2023-05-07T10:40:34;19.30;48.70
45207;DHT22;30950;53.086;21.576;2023-05-07T10:43:03;19.40;46.00
45207;DHT22;30950;53.086;21.576;2023-05-07T10:45:42;19.10;45.80
45207;DHT22;30950;53.086;21.576;2023-05-07T10:48:14;18.70;45.70
45207;DHT22;30950;53.086;21.576;2023-05-07T10:51:21;18.30;46.30
45207;DHT22;30950;53.086;21.576;2023-05-07T10:56:45;17.20;45.30
45207;DHT22;30950;53.086;21.576;2023-05-07T11:01:59;16.40;46.50
45207;DHT22;30950;53.086;21.576;2023-05-07T11:05:19;16.10;46.60
45207;DHT22;30950;53.086;21.576;2023-05-07T11:13:49;15.60;47.40
45207;DHT22;30950;53.086;21.576;2023-05-07T11:16:43;15.50;47.90
45207;DHT22;30950;53.086;21.576;2023-05-07T11:19:48;15.50;48.00
45207;DHT22;30950;53.086;21.576;2023-05-07T11:22:37;15.50;48.50
45207;DHT22;30950;53.086;21.576;2023-05-07T11:25:19;15.60;48.60
45207;DHT22;30950;53.086;21.576;2023-05-07T11:27:52;15.70;48.50
45207;DHT22;30950;53.086;21.576;2023-05-07T11:30:20;15.60;48.30
45207;DHT22;30950;53.086;21.576;2023-05-07T11:32:48;15.50;47.50
45207;DHT22;30950;53.086;21.576;2023-05-07T11:35:17;15.50;48.60
45207;DHT22;30950;53.086;21.576;2023-05-07T11:37:48;15.60;48.50
45207;DHT22;30950;53.086;21.576;2023-05-07T11:40:16;15.60;47.80
45207;DHT22;30950;53.086;21.576;2023-05-07T11:42:43;15.70;47.40
45207;DHT22;30950;53.086;21.576;2023-05-07T11:45:11;15.60;47.80
45207;DHT22;30950;53.086;21.576;2023-05-07T11:47:41;15.60;48.00
45207;DHT22;30950;53.086;21.576;2023-05-07T11:50:10;15.50;48.60
45207;DHT22;30950;53.086;21.576;2023-05-07T11:52:38;15.50;47.70
45207;DHT22;30950;53.086;21.576;2023-05-07T11:55:07;15.50;47.50
45207;DHT22;30950;53.086;21.576;2023-05-07T11:57:35;15.50;47.80
45207;DHT22;30950;53.086;21.576;2023-05-07T12:00:02;15.60;47.60
45207;DHT22;30950;53.086;21.576;2023-05-07T12:02:40;15.70;47.50
45207;DHT22;30950;53.086;21.576;2023-05-07T12:05:09;15.80;48.00
45207;DHT22;30950;53.086;21.576;2023-05-07T12:07:37;15.80;47.40
45207;DHT22;30950;53.086;21.576;2023-05-07T12:10:05;16.00;47.10
45207;DHT22;30950;53.086;21.576;2023-05-07T12:12:45;16.20;47.20
45207;DHT22;30950;53.086;21.576;2023-05-07T12:15:16;16.40;47.50
45207;DHT22;30950;53.086;21.576;2023-05-07T12:17:43;16.60;47.80
45207;DHT22;30950;53.086;21.576;2023-05-07T12:20:11;16.80;47.60
45207;DHT22;30950;53.086;21.576;2023-05-07T12:22:38;16.90;47.00
45207;DHT22;30950;53.086;21.576;2023-05-07T12:25:06;17.00;47.10
45207;DHT22;30950;53.086;21.576;2023-05-07T12:27:37;17.20;47.40
45207;DHT22;30950;53.086;21.576;2023-05-07T12:30:05;17.30;45.60
45207;DHT22;30950;53.086;21.576;2023-05-07T12:32:33;17.40;45.20
45207;DHT22;30950;53.086;21.576;2023-05-07T12:35:05;17.70;45.40
45207;DHT22;30950;53.086;21.576;2023-05-07T12:37:33;18.00;45.60
45207;DHT22;30950;53.086;21.576;2023-05-07T12:40:09;18.20;45.40
45207;DHT22;30950;53.086;21.576;2023-05-07T12:42:37;18.40;46.00
45207;DHT22;30950;53.086;21.576;2023-05-07T12:45:12;18.80;46.00
45207;DHT22;30950;53.086;21.576;2023-05-07T12:47:47;19.40;44.70
45207;DHT22;30950;53.086;21.576;2023-05-07T12:50:15;20.00;43.50
45207;DHT22;30950;53.086;21.576;2023-05-07T12:52:45;20.60;42.60
45207;DHT22;30950;53.086;21.576;2023-05-07T12:55:14;21.30;42.50
45207;DHT22;30950;53.086;21.576;2023-05-07T12:57:45;22.00;41.50
45207;DHT22;30950;53.086;21.576;2023-05-07T13:00:13;22.70;41.10
45207;DHT22;30950;53.086;21.576;2023-05-07T13:02:42;23.30;40.10
45207;DHT22;30950;53.086;21.576;2023-05-07T13:05:12;23.70;39.00
45207;DHT22;30950;53.086;21.576;2023-05-07T13:07:39;24.00;37.90
45207;DHT22;30950;53.086;21.576;2023-05-07T13:10:08;24.20;37.60
45207;DHT22;30950;53.086;21.576;2023-05-07T13:12:35;24.50;36.90
45207;DHT22;30950;53.086;21.576;2023-05-07T13:15:03;24.70;35.30
45207;DHT22;30950;53.086;21.576;2023-05-07T13:17:30;24.80;35.90
45207;DHT22;30950;53.086;21.576;2023-05-07T13:19:58;24.90;35.00
45207;DHT22;30950;53.086;21.576;2023-05-07T13:22:26;25.00;35.70
45207;DHT22;30950;53.086;21.576;2023-05-07T13:24:53;25.10;34.80
45207;DHT22;30950;53.086;21.576;2023-05-07T13:27:20;25.20;35.10
45207;DHT22;30950;53.086;21.576;2023-05-07T13:29:47;25.50;35.30
45207;DHT22;30950;53.086;21.576;2023-05-07T13:32:15;25.80;35.00
45207;DHT22;30950;53.086;21.576;2023-05-07T13:34:42;25.90;34.10
45207;DHT22;30950;53.086;21.576;2023-05-07T13:37:09;25.90;33.20
45207;DHT22;30950;53.086;21.576;2023-05-07T13:39:38;26.00;33.90
45207;DHT22;30950;53.086;21.576;2023-05-07T13:42:05;25.90;33.70
45207;DHT22;30950;53.086;21.576;2023-05-07T13:44:32;26.00;34.00
45207;DHT22;30950;53.086;21.576;2023-05-07T13:47:00;25.10;32.70
45207;DHT22;30950;53.086;21.576;2023-05-07T13:49:27;25.40;32.30
45207;DHT22;30950;53.086;21.576;2023-05-07T13:51:55;24.90;32.70
45207;DHT22;30950;53.086;21.576;2023-05-07T13:54:23;24.90;33.70
45207;DHT22;30950;53.086;21.576;2023-05-07T13:56:50;24.80;33.00
45207;DHT22;30950;53.086;21.576;2023-05-07T13:59:18;24.70;33.50
45207;DHT22;30950;53.086;21.576;2023-05-07T14:01:45;24.90;34.80
45207;DHT22;30950;53.086;21.576;2023-05-07T14:04:12;25.10;34.00
45207;DHT22;30950;53.086;21.576;2023-05-07T14:06:39;25.10;33.30
45207;DHT22;30950;53.086;21.576;2023-05-07T14:09:07;24.70;32.80
45207;DHT22;30950;53.086;21.576;2023-05-07T14:11:34;24.30;32.90
45207;DHT22;30950;53.086;21.576;2023-05-07T14:14:02;23.80;33.40
45207;DHT22;30950;53.086;21.576;2023-05-07T14:16:29;23.20;33.50
45207;DHT22;30950;53.086;21.576;2023-05-07T14:18:57;22.70;34.50
45207;DHT22;30950;53.086;21.576;2023-05-07T14:21:24;22.20;35.00
45207;DHT22;30950;53.086;21.576;2023-05-07T14:23:52;21.70;35.30
45207;DHT22;30950;53.086;21.576;2023-05-07T14:26:19;21.50;35.50
45207;DHT22;30950;53.086;21.576;2023-05-07T14:28:47;21.30;35.70
45207;DHT22;30950;53.086;21.576;2023-05-07T14:31:14;21.30;36.60
45207;DHT22;30950;53.086;21.576;2023-05-07T14:33:42;21.10;35.80
45207;DHT22;30950;53.086;21.576;2023-05-07T14:36:10;21.20;36.10
45207;DHT22;30950;53.086;21.576;2023-05-07T14:38:37;21.40;36.30
45207;DHT22;30950;53.086;21.576;2023-05-07T14:41:04;21.40;36.10
45207;DHT22;30950;53.086;21.576;2023-05-07T14:43:32;21.10;35.90
45207;DHT22;30950;53.086;21.576;2023-05-07T14:45:59;20.70;36.10
45207;DHT22;30950;53.086;21.576;2023-05-07T14:48:26;20.20;36.60
45207;DHT22;30950;53.086;21.576;2023-05-07T14:50:53;19.70;36.90
45207;DHT22;30950;53.086;21.576;2023-05-07T14:53:21;19.30;37.80
45207;DHT22;30950;53.086;21.576;2023-05-07T14:55:48;18.90;38.10
45207;DHT22;30950;53.086;21.576;2023-05-07T14:58:16;18.90;39.20
45207;DHT22;30950;53.086;21.576;2023-05-07T15:00:43;19.00;39.40
45207;DHT22;30950;53.086;21.576;2023-05-07T15:03:10;19.40;39.50
45207;DHT22;30950;53.086;21.576;2023-05-07T15:05:41;19.90;39.30
45207;DHT22;30950;53.086;21.576;2023-05-07T15:08:09;20.30;39.40
45207;DHT22;30950;53.086;21.576;2023-05-07T15:10:37;20.80;39.20
45207;DHT22;30950;53.086;21.576;2023-05-07T15:13:09;21.30;38.80
45207;DHT22;30950;53.086;21.576;2023-05-07T15:15:42;21.70;38.00
45207;DHT22;30950;53.086;21.576;2023-05-07T15:18:13;22.00;37.40
45207;DHT22;30950;53.086;21.576;2023-05-07T15:20:41;22.20;36.50
45207;DHT22;30950;53.086;21.576;2023-05-07T15:23:08;22.10;35.80
45207;DHT22;30950;53.086;21.576;2023-05-07T15:25:37;22.00;36.30
45207;DHT22;30950;53.086;21.576;2023-05-07T15:28:05;21.90;36.50
45207;DHT22;30950;53.086;21.576;2023-05-07T15:30:32;22.00;36.50
45207;DHT22;30950;53.086;21.576;2023-05-07T15:33:01;21.90;36.00
45207;DHT22;30950;53.086;21.576;2023-05-07T15:35:28;21.80;36.20
45207;DHT22;30950;53.086;21.576;2023-05-07T15:37:55;21.70;36.10
45207;DHT22;30950;53.086;21.576;2023-05-07T15:40:23;21.60;36.30
45207;DHT22;30950;53.086;21.576;2023-05-07T15:42:54;21.50;36.30
45207;DHT22;30950;53.086;21.576;2023-05-07T15:45:23;21.40;35.90
45207;DHT22;30950;53.086;21.576;2023-05-07T15:47:51;21.20;35.80